sensor_id;sensor_type;location;lat;lon;timestamp;P1;durP1;ratioP1;P2;durP2;ratioP2
5026;SDS011;2532;52.480;13.354;2023-07-31T04:02:00;10.67;;;5.90;;
5026;SDS011;2532;52.480;13.354;2023-07-31T04:04:27;10.23;;;5.33;;
5026;SDS011;2532;52.480;13.354;2023-07-31T04:06:54;9.87;;;5.70;;
5026;SDS011;2532;52.480;13.354;2023-07-31T04:09:20;8.93;;;5.97;;
5026;SDS011;2532;52.480;13.354;2023-07-31T04:11:47;8.57;;;5.90;;
5026;SDS011;2532;52.480;13.354;2023-07-31T04:14:14;12.37;;;5.63;;
5026;SDS011;2532;52.480;13.354;2023-07-31T04:16:41;11.63;;;5.47;;
5026;SDS011;2532;52.480;13.354;2023-07-31T04:19:09;14.03;;;5.33;;
5026;SDS011;2532;52.480;13.354;2023-07-31T04:21:41;11.50;;;4.83;;
5026;SDS011;2532;52.480;13.354;2023-07-31T04:24:08;10.90;;;4.93;;
5026;SDS011;2532;52.480;13.354;2023-07-31T04:26:35;10.23;;;5.53;;
5026;SDS011;2532;52.480;13.354;2023-07-31T04:29:02;9.40;;;4.50;;
5026;SDS011;2532;52.480;13.354;2023-07-31T04:31:29;8.03;;;5.47;;
5026;SDS011;2532;52.480;13.354;2023-07-31T04:33:55;9.67;;;6.67;;
5026;SDS011;2532;52.480;13.354;2023-07-31T04:36:24;11.00;;;5.63;;
5026;SDS011;2532;52.480;13.354;2023-07-31T04:38:51;8.50;;;5.63;;
5026;SDS011;2532;52.480;13.354;2023-07-31T04:41:18;8.63;;;5.33;;
5026;SDS011;2532;52.480;13.354;2023-07-31T04:43:44;9.53;;;5.50;;
5026;SDS011;2532;52.480;13.354;2023-07-31T04:46:11;8.10;;;5.27;;
5026;SDS011;2532;52.480;13.354;2023-07-31T04:48:38;8.00;;;5.07;;
5026;SDS011;2532;52.480;13.354;2023-07-31T04:51:05;7.63;;;5.20;;
5026;SDS011;2532;52.480;13.354;2023-07-31T04:53:33;8.33;;;5.03;;
5026;SDS011;2532;52.480;13.354;2023-07-31T04:56:00;8.80;;;4.80;;
5026;SDS011;2532;52.480;13.354;2023-07-31T04:58:27;9.07;;;5.43;;
5026;SDS011;2532;52.480;13.354;2023-07-31T05:00:54;8.10;;;4.83;;
5026;SDS011;2532;52.480;13.354;2023-07-31T05:03:21;7.73;;;5.67;;
5026;SDS011;2532;52.480;13.354;2023-07-31T05:05:48;10.07;;;5.67;;
5026;SDS011;2532;52.480;13.354;2023-07-31T05:08:16;12.60;;;6.73;;
5026;SDS011;2532;52.480;13.354;2023-07-31T05:10:44;9.43;;;5.53;;
5026;SDS011;2532;52.480;13.354;2023-07-31T05:13:11;8.93;;;4.80;;
5026;SDS011;2532;52.480;13.354;2023-07-31T05:15:38;12.47;;;5.33;;
5026;SDS011;2532;52.480;13.354;2023-07-31T05:18:05;9.33;;;5.60;;
5026;SDS011;2532;52.480;13.354;2023-07-31T05:20:32;8.53;;;5.50;;
5026;SDS011;2532;52.480;13.354;2023-07-31T05:22:59;9.37;;;5.37;;
5026;SDS011;2532;52.480;13.354;2023-07-31T05:25:25;9.47;;;5.00;;
5026;SDS011;2532;52.480;13.354;2023-07-31T05:27:54;7.90;;;5.40;;
5026;SDS011;2532;52.480;13.354;2023-07-31T05:30:21;6.77;;;4.83;;
5026;SDS011;2532;52.480;13.354;2023-07-31T05:32:48;8.63;;;5.07;;
5026;SDS011;2532;52.480;13.354;2023-07-31T05:35:15;8.07;;;4.40;;
5026;SDS011;2532;52.480;13.354;2023-07-31T05:37:42;9.00;;;4.50;;
5026;SDS011;2532;52.480;13.354;2023-07-31T05:40:09;8.23;;;4.70;;
5026;SDS011;2532;52.480;13.354;2023-07-31T05:42:36;13.07;;;4.87;;
5026;SDS011;2532;52.480;13.354;2023-07-31T05:45:06;6.90;;;4.90;;
5026;SDS011;2532;52.480;13.354;2023-07-31T05:47:33;7.90;;;4.67;;
5026;SDS011;2532;52.480;13.354;2023-07-31T05:50:00;9.80;;;4.70;;
5026;SDS011;2532;52.480;13.354;2023-07-31T05:52:28;10.97;;;4.50;;
5026;SDS011;2532;52.480;13.354;2023-07-31T05:54:55;6.77;;;4.37;;
5026;SDS011;2532;52.480;13.354;2023-07-31T05:57:22;8.23;;;4.93;;
5026;SDS011;2532;52.480;13.354;2023-07-31T05:59:48;11.40;;;4.53;;
5026;SDS011;2532;52.480;13.354;2023-07-31T06:02:17;5.43;;;3.97;;
5026;SDS011;2532;52.480;13.354;2023-07-31T06:04:44;9.90;;;4.17;;
5026;SDS011;2532;52.480;13.354;2023-07-31T06:07:11;5.97;;;4.23;;
5026;SDS011;2532;52.480;13.354;2023-07-31T06:09:38;6.57;;;3.93;;
5026;SDS011;2532;52.480;13.354;2023-07-31T06:12:05;13.03;;;5.80;;
5026;SDS011;2532;52.480;13.354;2023-07-31T06:14:32;11.70;;;4.27;;
5026;SDS011;2532;52.480;13.354;2023-07-31T06:16:59;5.87;;;3.90;;
5026;SDS011;2532;52.480;13.354;2023-07-31T06:19:27;8.57;;;3.83;;
5026;SDS011;2532;52.480;13.354;2023-07-31T06:21:54;6.70;;;3.70;;
5026;SDS011;2532;52.480;13.354;2023-07-31T06:24:21;6.47;;;4.00;;
5026;SDS011;2532;52.480;13.354;2023-07-31T06:26:48;11.10;;;5.43;;
5026;SDS011;2532;52.480;13.354;2023-07-31T06:29:15;8.67;;;4.50;;
5026;SDS011;2532;52.480;13.354;2023-07-31T06:31:42;6.30;;;4.20;;
5026;SDS011;2532;52.480;13.354;2023-07-31T06:34:09;6.00;;;3.97;;
5026;SDS011;2532;52.480;13.354;2023-07-31T06:36:38;6.83;;;3.97;;
5026;SDS011;2532;52.480;13.354;2023-07-31T06:39:05;9.77;;;4.30;;
5026;SDS011;2532;52.480;13.354;2023-07-31T06:41:31;9.73;;;3.67;;
5026;SDS011;2532;52.480;13.354;2023-07-31T06:43:58;6.30;;;3.63;;
5026;SDS011;2532;52.480;13.354;2023-07-31T06:46:25;9.93;;;3.80;;
5026;SDS011;2532;52.480;13.354;2023-07-31T06:48:53;9.23;;;3.77;;
5026;SDS011;2532;52.480;13.354;2023-07-31T06:51:20;6.83;;;3.60;;
5026;SDS011;2532;52.480;13.354;2023-07-31T06:53:48;9.40;;;4.23;;
5026;SDS011;2532;52.480;13.354;2023-07-31T06:56:15;6.73;;;3.43;;
5026;SDS011;2532;52.480;13.354;2023-07-31T06:58:42;6.53;;;3.77;;
5026;SDS011;2532;52.480;13.354;2023-07-31T07:01:09;9.23;;;3.83;;
5026;SDS011;2532;52.480;13.354;2023-07-31T07:03:36;6.40;;;4.07;;
5026;SDS011;2532;52.480;13.354;2023-07-31T07:06:03;7.37;;;4.27;;
5026;SDS011;2532;52.480;13.354;2023-07-31T07:08:29;7.07;;;3.87;;
5026;SDS011;2532;52.480;13.354;2023-07-31T07:10:59;6.10;;;3.63;;
5026;SDS011;2532;52.480;13.354;2023-07-31T07:13:26;10.80;;;4.57;;
5026;SDS011;2532;52.480;13.354;2023-07-31T07:15:52;10.10;;;3.73;;
5026;SDS011;2532;52.480;13.354;2023-07-31T07:18:19;9.30;;;3.70;;
5026;SDS011;2532;52.480;13.354;2023-07-31T07:20:49;5.57;;;4.03;;
5026;SDS011;2532;52.480;13.354;2023-07-31T07:23:16;5.67;;;3.77;;
5026;SDS011;2532;52.480;13.354;2023-07-31T07:25:45;5.27;;;3.60;;
5026;SDS011;2532;52.480;13.354;2023-07-31T07:28:14;11.17;;;4.70;;
5026;SDS011;2532;52.480;13.354;2023-07-31T07:30:41;5.20;;;3.80;;
5026;SDS011;2532;52.480;13.354;2023-07-31T07:33:08;7.87;;;3.70;;
5026;SDS011;2532;52.480;13.354;2023-07-31T07:35:35;7.53;;;4.00;;
5026;SDS011;2532;52.480;13.354;2023-07-31T07:38:02;10.60;;;4.50;;
5026;SDS011;2532;52.480;13.354;2023-07-31T07:40:29;6.13;;;3.70;;
5026;SDS011;2532;52.480;13.354;2023-07-31T07:42:56;9.00;;;4.10;;
5026;SDS011;2532;52.480;13.354;2023-07-31T07:45:26;9.07;;;4.30;;
5026;SDS011;2532;52.480;13.354;2023-07-31T07:47:53;6.87;;;4.20;;
5026;SDS011;2532;52.480;13.354;2023-07-31T07:50:20;7.87;;;3.93;;
5026;SDS011;2532;52.480;13.354;2023-07-31T07:52:47;6.83;;;4.40;;
5026;SDS011;2532;52.480;13.354;2023-07-31T07:55:14;7.60;;;3.70;;
5026;SDS011;2532;52.480;13.354;2023-07-31T07:57:41;6.07;;;3.90;;
5026;SDS011;2532;52.480;13.354;2023-07-31T08:00:09;5.00;;;3.80;;
5026;SDS011;2532;52.480;13.354;2023-07-31T08:02:38;5.57;;;3.77;;
5026;SDS011;2532;52.480;13.354;2023-07-31T08:05:05;5.77;;;3.50;;
5026;SDS011;2532;52.480;13.354;2023-07-31T08:07:32;5.07;;;3.23;;
5026;SDS011;2532;52.480;13.354;2023-07-31T08:09:59;5.30;;;3.20;;
5026;SDS011;2532;52.480;13.354;2023-07-31T08:12:27;3.67;;;3.03;;
5026;SDS011;2532;52.480;13.354;2023-07-31T08:14:53;7.10;;;3.50;;
5026;SDS011;2532;52.480;13.354;2023-07-31T08:17:20;5.50;;;3.50;;
5026;SDS011;2532;52.480;13.354;2023-07-31T08:19:49;3.70;;;3.30;;
5026;SDS011;2532;52.480;13.354;2023-07-31T08:22:16;5.50;;;3.70;;
5026;SDS011;2532;52.480;13.354;2023-07-31T08:24:43;4.23;;;3.80;;
5026;SDS011;2532;52.480;13.354;2023-07-31T08:27:10;6.27;;;3.73;;
5026;SDS011;2532;52.480;13.354;2023-07-31T08:29:37;4.50;;;3.73;;
5026;SDS011;2532;52.480;13.354;2023-07-31T08:32:04;4.10;;;3.10;;
5026;SDS011;2532;52.480;13.354;2023-07-31T08:34:32;4.37;;;3.23;;
5026;SDS011;2532;52.480;13.354;2023-07-31T08:37:00;5.40;;;4.20;;
5026;SDS011;2532;52.480;13.354;2023-07-31T08:39:27;5.43;;;3.83;;
5026;SDS011;2532;52.480;13.354;2023-07-31T08:41:57;5.20;;;3.23;;
5026;SDS011;2532;52.480;13.354;2023-07-31T08:44:25;6.40;;;4.00;;
5026;SDS011;2532;52.480;13.354;2023-07-31T08:46:52;4.50;;;3.20;;
5026;SDS011;2532;52.480;13.354;2023-07-31T08:49:19;3.63;;;3.20;;
5026;SDS011;2532;52.480;13.354;2023-07-31T08:51:48;7.43;;;3.67;;
5026;SDS011;2532;52.480;13.354;2023-07-31T08:54:19;5.40;;;3.43;;
5026;SDS011;2532;52.480;13.354;2023-07-31T08:56:47;3.40;;;2.80;;
5026;SDS011;2532;52.480;13.354;2023-07-31T08:59:14;11.50;;;3.20;;
5026;SDS011;2532;52.480;13.354;2023-07-31T09:01:43;4.80;;;3.20;;
5026;SDS011;2532;52.480;13.354;2023-07-31T09:04:15;9.10;;;4.20;;
5026;SDS011;2532;52.480;13.354;2023-07-31T09:06:44;3.93;;;2.93;;
5026;SDS011;2532;52.480;13.354;2023-07-31T09:09:13;6.57;;;3.20;;
5026;SDS011;2532;52.480;13.354;2023-07-31T09:11:41;6.00;;;3.97;;
5026;SDS011;2532;52.480;13.354;2023-07-31T09:14:08;3.23;;;2.60;;
5026;SDS011;2532;52.480;13.354;2023-07-31T09:16:39;4.67;;;2.87;;
5026;SDS011;2532;52.480;13.354;2023-07-31T09:19:24;9.63;;;4.97;;
5026;SDS011;2532;52.480;13.354;2023-07-31T09:21:52;3.27;;;2.93;;
5026;SDS011;2532;52.480;13.354;2023-07-31T09:24:24;4.93;;;2.93;;
5026;SDS011;2532;52.480;13.354;2023-07-31T09:26:54;2.57;;;2.37;;
5026;SDS011;2532;52.480;13.354;2023-07-31T09:29:22;3.40;;;2.73;;
5026;SDS011;2532;52.480;13.354;2023-07-31T09:31:50;3.73;;;2.60;;
5026;SDS011;2532;52.480;13.354;2023-07-31T09:34:17;2.30;;;2.10;;
5026;SDS011;2532;52.480;13.354;2023-07-31T09:36:44;4.33;;;3.00;;
5026;SDS011;2532;52.480;13.354;2023-07-31T09:39:13;3.47;;;2.83;;
5026;SDS011;2532;52.480;13.354;2023-07-31T09:41:41;3.30;;;2.40;;
5026;SDS011;2532;52.480;13.354;2023-07-31T09:44:15;2.80;;;2.50;;
5026;SDS011;2532;52.480;13.354;2023-07-31T09:46:42;4.90;;;3.10;;
5026;SDS011;2532;52.480;13.354;2023-07-31T09:49:09;3.20;;;2.73;;
5026;SDS011;2532;52.480;13.354;2023-07-31T09:51:37;2.60;;;2.40;;
5026;SDS011;2532;52.480;13.354;2023-07-31T09:54:10;2.80;;;2.50;;
5026;SDS011;2532;52.480;13.354;2023-07-31T09:56:41;5.63;;;2.40;;
5026;SDS011;2532;52.480;13.354;2023-07-31T09:59:11;3.70;;;3.00;;
5026;SDS011;2532;52.480;13.354;2023-07-31T10:01:41;5.97;;;3.23;;
5026;SDS011;2532;52.480;13.354;2023-07-31T10:04:08;3.33;;;3.00;;
5026;SDS011;2532;52.480;13.354;2023-07-31T10:06:37;4.50;;;3.20;;
5026;SDS011;2532;52.480;13.354;2023-07-31T10:09:05;7.57;;;3.47;;
5026;SDS011;2532;52.480;13.354;2023-07-31T10:11:34;4.23;;;3.60;;
5026;SDS011;2532;52.480;13.354;2023-07-31T10:14:07;6.20;;;3.63;;
5026;SDS011;2532;52.480;13.354;2023-07-31T10:16:37;8.00;;;4.50;;
5026;SDS011;2532;52.480;13.354;2023-07-31T10:19:07;7.30;;;4.73;;
5026;SDS011;2532;52.480;13.354;2023-07-31T10:21:34;4.30;;;3.60;;
5026;SDS011;2532;52.480;13.354;2023-07-31T10:24:03;8.80;;;4.50;;
5026;SDS011;2532;52.480;13.354;2023-07-31T10:26:31;7.50;;;4.40;;
5026;SDS011;2532;52.480;13.354;2023-07-31T10:28:59;7.93;;;4.60;;
5026;SDS011;2532;52.480;13.354;2023-07-31T10:31:26;10.40;;;5.00;;
5026;SDS011;2532;52.480;13.354;2023-07-31T10:33:54;7.60;;;4.60;;
5026;SDS011;2532;52.480;13.354;2023-07-31T10:36:24;8.40;;;4.90;;
5026;SDS011;2532;52.480;13.354;2023-07-31T10:38:52;6.30;;;4.43;;
5026;SDS011;2532;52.480;13.354;2023-07-31T10:41:26;10.00;;;4.80;;
5026;SDS011;2532;52.480;13.354;2023-07-31T10:43:57;7.30;;;4.90;;
5026;SDS011;2532;52.480;13.354;2023-07-31T10:46:24;13.83;;;5.60;;
5026;SDS011;2532;52.480;13.354;2023-07-31T10:48:56;18.07;;;5.40;;
5026;SDS011;2532;52.480;13.354;2023-07-31T10:51:26;7.67;;;4.37;;
5026;SDS011;2532;52.480;13.354;2023-07-31T10:54:10;6.53;;;4.57;;
5026;SDS011;2532;52.480;13.354;2023-07-31T10:56:37;9.20;;;4.90;;
5026;SDS011;2532;52.480;13.354;2023-07-31T10:59:05;7.40;;;3.93;;
5026;SDS011;2532;52.480;13.354;2023-07-31T11:01:51;6.33;;;4.50;;
5026;SDS011;2532;52.480;13.354;2023-07-31T11:04:21;12.13;;;4.60;;
5026;SDS011;2532;52.480;13.354;2023-07-31T11:06:57;6.97;;;4.27;;
5026;SDS011;2532;52.480;13.354;2023-07-31T11:09:27;6.73;;;4.20;;
5026;SDS011;2532;52.480;13.354;2023-07-31T11:11:56;7.03;;;4.70;;
5026;SDS011;2532;52.480;13.354;2023-07-31T11:14:23;8.10;;;4.40;;
5026;SDS011;2532;52.480;13.354;2023-07-31T11:16:50;7.63;;;4.30;;
5026;SDS011;2532;52.480;13.354;2023-07-31T11:19:21;6.83;;;4.83;;
5026;SDS011;2532;52.480;13.354;2023-07-31T11:21:49;6.47;;;4.07;;
5026;SDS011;2532;52.480;13.354;2023-07-31T11:24:18;6.80;;;4.37;;
5026;SDS011;2532;52.480;13.354;2023-07-31T11:26:49;7.50;;;4.40;;
5026;SDS011;2532;52.480;13.354;2023-07-31T11:29:16;7.50;;;4.40;;
5026;SDS011;2532;52.480;13.354;2023-07-31T11:31:44;6.03;;;4.33;;
5026;SDS011;2532;52.480;13.354;2023-07-31T11:34:11;9.03;;;5.10;;
5026;SDS011;2532;52.480;13.354;2023-07-31T11:36:38;7.50;;;4.93;;
5026;SDS011;2532;52.480;13.354;2023-07-31T11:39:05;10.67;;;4.70;;
5026;SDS011;2532;52.480;13.354;2023-07-31T11:41:35;6.10;;;4.20;;
5026;SDS011;2532;52.480;13.354;2023-07-31T11:44:02;7.40;;;3.50;;
5026;SDS011;2532;52.480;13.354;2023-07-31T11:46:29;5.30;;;3.67;;
5026;SDS011;2532;52.480;13.354;2023-07-31T11:48:59;6.50;;;3.87;;
5026;SDS011;2532;52.480;13.354;2023-07-31T11:51:26;7.00;;;4.03;;
5026;SDS011;2532;52.480;13.354;2023-07-31T11:53:56;4.30;;;3.80;;
5026;SDS011;2532;52.480;13.354;2023-07-31T11:56:24;6.93;;;3.93;;
5026;SDS011;2532;52.480;13.354;2023-07-31T11:58:54;6.97;;;4.53;;
5026;SDS011;2532;52.480;13.354;2023-07-31T12:01:23;7.43;;;4.03;;
5026;SDS011;2532;52.480;13.354;2023-07-31T12:03:52;7.50;;;4.17;;
5026;SDS011;2532;52.480;13.354;2023-07-31T12:06:20;7.87;;;4.40;;
5026;SDS011;2532;52.480;13.354;2023-07-31T12:08:47;5.73;;;4.30;;
5026;SDS011;2532;52.480;13.354;2023-07-31T12:11:14;7.90;;;4.33;;
5026;SDS011;2532;52.480;13.354;2023-07-31T12:13:43;7.40;;;3.63;;
5026;SDS011;2532;52.480;13.354;2023-07-31T12:16:11;8.53;;;4.23;;
5026;SDS011;2532;52.480;13.354;2023-07-31T12:18:38;4.87;;;3.80;;
5026;SDS011;2532;52.480;13.354;2023-07-31T12:21:06;7.57;;;4.20;;
5026;SDS011;2532;52.480;13.354;2023-07-31T12:23:34;5.60;;;4.23;;
5026;SDS011;2532;52.480;13.354;2023-07-31T12:26:03;8.63;;;4.07;;
5026;SDS011;2532;52.480;13.354;2023-07-31T12:28:34;6.60;;;3.50;;
5026;SDS011;2532;52.480;13.354;2023-07-31T12:31:03;5.33;;;3.53;;
5026;SDS011;2532;52.480;13.354;2023-07-31T12:33:33;4.93;;;3.50;;
5026;SDS011;2532;52.480;13.354;2023-07-31T12:36:00;6.43;;;3.80;;
5026;SDS011;2532;52.480;13.354;2023-07-31T12:38:29;6.50;;;4.27;;
5026;SDS011;2532;52.480;13.354;2023-07-31T12:40:55;6.37;;;3.80;;
5026;SDS011;2532;52.480;13.354;2023-07-31T12:43:22;11.60;;;5.27;;
5026;SDS011;2532;52.480;13.354;2023-07-31T12:45:49;7.87;;;3.70;;
5026;SDS011;2532;52.480;13.354;2023-07-31T12:48:16;4.77;;;3.70;;
5026;SDS011;2532;52.480;13.354;2023-07-31T12:50:45;6.27;;;3.90;;
5026;SDS011;2532;52.480;13.354;2023-07-31T12:53:12;5.00;;;3.23;;
5026;SDS011;2532;52.480;13.354;2023-07-31T12:55:38;5.70;;;3.03;;
5026;SDS011;2532;52.480;13.354;2023-07-31T12:58:05;9.07;;;4.13;;
5026;SDS011;2532;52.480;13.354;2023-07-31T13:00:32;5.30;;;3.13;;
5026;SDS011;2532;52.480;13.354;2023-07-31T13:02:59;4.17;;;3.17;;
5026;SDS011;2532;52.480;13.354;2023-07-31T13:05:27;5.33;;;3.40;;
5026;SDS011;2532;52.480;13.354;2023-07-31T13:07:56;5.03;;;2.90;;
5026;SDS011;2532;52.480;13.354;2023-07-31T13:10:23;4.43;;;3.13;;
5026;SDS011;2532;52.480;13.354;2023-07-31T13:12:51;4.93;;;3.10;;
5026;SDS011;2532;52.480;13.354;2023-07-31T13:15:18;7.60;;;3.20;;
5026;SDS011;2532;52.480;13.354;2023-07-31T13:17:45;5.10;;;3.27;;
5026;SDS011;2532;52.480;13.354;2023-07-31T13:20:12;6.03;;;3.07;;
5026;SDS011;2532;52.480;13.354;2023-07-31T13:22:39;6.10;;;3.80;;
5026;SDS011;2532;52.480;13.354;2023-07-31T13:25:08;4.70;;;3.40;;
5026;SDS011;2532;52.480;13.354;2023-07-31T13:27:35;6.50;;;3.87;;
5026;SDS011;2532;52.480;13.354;2023-07-31T13:30:02;3.93;;;3.53;;
5026;SDS011;2532;52.480;13.354;2023-07-31T13:32:29;5.90;;;3.97;;
5026;SDS011;2532;52.480;13.354;2023-07-31T13:34:56;5.00;;;3.60;;
5026;SDS011;2532;52.480;13.354;2023-07-31T13:37:23;4.77;;;3.60;;
5026;SDS011;2532;52.480;13.354;2023-07-31T13:39:50;7.40;;;3.83;;
5026;SDS011;2532;52.480;13.354;2023-07-31T13:42:18;7.77;;;3.63;;
5026;SDS011;2532;52.480;13.354;2023-07-31T13:44:45;4.30;;;3.90;;
5026;SDS011;2532;52.480;13.354;2023-07-31T13:47:12;9.60;;;3.93;;
5026;SDS011;2532;52.480;13.354;2023-07-31T13:49:40;7.77;;;4.77;;
5026;SDS011;2532;52.480;13.354;2023-07-31T13:52:08;6.60;;;4.10;;
5026;SDS011;2532;52.480;13.354;2023-07-31T13:54:35;5.73;;;3.80;;
5026;SDS011;2532;52.480;13.354;2023-07-31T13:57:02;10.70;;;4.10;;
5026;SDS011;2532;52.480;13.354;2023-07-31T13:59:31;8.00;;;5.30;;
5026;SDS011;2532;52.480;13.354;2023-07-31T14:01:58;7.40;;;4.13;;
5026;SDS011;2532;52.480;13.354;2023-07-31T14:04:24;7.17;;;4.30;;
5026;SDS011;2532;52.480;13.354;2023-07-31T14:06:51;10.20;;;4.17;;
5026;SDS011;2532;52.480;13.354;2023-07-31T14:09:18;5.60;;;4.17;;
5026;SDS011;2532;52.480;13.354;2023-07-31T14:11:45;6.20;;;4.10;;
5026;SDS011;2532;52.480;13.354;2023-07-31T14:14:12;6.77;;;4.07;;
5026;SDS011;2532;52.480;13.354;2023-07-31T14:16:40;11.03;;;4.57;;
5026;SDS011;2532;52.480;13.354;2023-07-31T14:19:07;5.50;;;3.47;;
5026;SDS011;2532;52.480;13.354;2023-07-31T14:21:35;7.93;;;4.43;;
5026;SDS011;2532;52.480;13.354;2023-07-31T14:24:02;10.57;;;4.40;;
5026;SDS011;2532;52.480;13.354;2023-07-31T14:26:29;6.33;;;4.10;;
5026;SDS011;2532;52.480;13.354;2023-07-31T14:28:56;6.07;;;4.37;;
5026;SDS011;2532;52.480;13.354;2023-07-31T14:31:23;5.87;;;4.30;;
5026;SDS011;2532;52.480;13.354;2023-07-31T14:33:51;7.13;;;4.73;;
5026;SDS011;2532;52.480;13.354;2023-07-31T14:36:18;5.13;;;4.10;;
5026;SDS011;2532;52.480;13.354;2023-07-31T14:38:45;6.53;;;4.70;;
5026;SDS011;2532;52.480;13.354;2023-07-31T14:41:12;8.63;;;4.23;;
5026;SDS011;2532;52.480;13.354;2023-07-31T14:43:39;6.50;;;4.20;;
5026;SDS011;2532;52.480;13.354;2023-07-31T14:46:06;7.70;;;4.27;;
5026;SDS011;2532;52.480;13.354;2023-07-31T14:48:33;8.47;;;4.20;;
5026;SDS011;2532;52.480;13.354;2023-07-31T14:51:01;10.93;;;3.73;;
5026;SDS011;2532;52.480;13.354;2023-07-31T14:53:29;7.40;;;3.93;;
5026;SDS011;2532;52.480;13.354;2023-07-31T14:55:55;6.50;;;4.20;;
5026;SDS011;2532;52.480;13.354;2023-07-31T14:58:23;6.00;;;3.63;;
5026;SDS011;2532;52.480;13.354;2023-07-31T15:00:50;9.40;;;4.00;;
5026;SDS011;2532;52.480;13.354;2023-07-31T15:03:17;7.20;;;4.10;;
5026;SDS011;2532;52.480;13.354;2023-07-31T15:05:44;5.60;;;4.10;;
5026;SDS011;2532;52.480;13.354;2023-07-31T15:08:12;5.47;;;4.20;;
5026;SDS011;2532;52.480;13.354;2023-07-31T15:10:39;4.93;;;3.83;;
5026;SDS011;2532;52.480;13.354;2023-07-31T15:13:06;8.90;;;4.43;;
5026;SDS011;2532;52.480;13.354;2023-07-31T15:15:33;5.93;;;4.47;;
5026;SDS011;2532;52.480;13.354;2023-07-31T15:18:00;7.10;;;4.60;;
5026;SDS011;2532;52.480;13.354;2023-07-31T15:20:27;8.00;;;4.53;;
5026;SDS011;2532;52.480;13.354;2023-07-31T15:22:55;8.00;;;4.73;;
5026;SDS011;2532;52.480;13.354;2023-07-31T15:25:23;7.30;;;3.83;;
5026;SDS011;2532;52.480;13.354;2023-07-31T15:27:50;7.10;;;3.97;;
5026;SDS011;2532;52.480;13.354;2023-07-31T15:30:17;6.23;;;3.90;;
5026;SDS011;2532;52.480;13.354;2023-07-31T15:32:44;7.20;;;4.37;;
5026;SDS011;2532;52.480;13.354;2023-07-31T15:35:13;7.23;;;4.47;;
5026;SDS011;2532;52.480;13.354;2023-07-31T15:37:41;8.67;;;5.00;;
5026;SDS011;2532;52.480;13.354;2023-07-31T15:40:08;6.50;;;4.27;;
5026;SDS011;2532;52.480;13.354;2023-07-31T15:42:37;6.70;;;4.73;;
5026;SDS011;2532;52.480;13.354;2023-07-31T15:45:05;6.50;;;5.37;;
5026;SDS011;2532;52.480;13.354;2023-07-31T15:47:33;7.13;;;4.93;;
5026;SDS011;2532;52.480;13.354;2023-07-31T15:50:00;5.40;;;4.03;;
5026;SDS011;2532;52.480;13.354;2023-07-31T15:52:27;9.77;;;5.00;;
5026;SDS011;2532;52.480;13.354;2023-07-31T15:54:54;7.47;;;5.43;;
5026;SDS011;2532;52.480;13.354;2023-07-31T15:57:21;8.43;;;6.00;;
5026;SDS011;2532;52.480;13.354;2023-07-31T15:59:49;5.67;;;4.40;;
5026;SDS011;2532;52.480;13.354;2023-07-31T16:02:16;7.70;;;4.67;;
5026;SDS011;2532;52.480;13.354;2023-07-31T16:04:43;10.70;;;5.07;;
5026;SDS011;2532;52.480;13.354;2023-07-31T16:07:10;8.17;;;5.10;;
5026;SDS011;2532;52.480;13.354;2023-07-31T16:09:37;6.00;;;4.60;;
5026;SDS011;2532;52.480;13.354;2023-07-31T16:12:05;10.70;;;6.80;;
5026;SDS011;2532;52.480;13.354;2023-07-31T16:14:35;8.73;;;5.43;;
5026;SDS011;2532;52.480;13.354;2023-07-31T16:17:03;7.40;;;5.60;;
5026;SDS011;2532;52.480;13.354;2023-07-31T16:19:31;5.57;;;4.20;;
5026;SDS011;2532;52.480;13.354;2023-07-31T16:22:03;6.30;;;4.10;;
5026;SDS011;2532;52.480;13.354;2023-07-31T16:24:31;7.00;;;4.83;;
5026;SDS011;2532;52.480;13.354;2023-07-31T16:26:58;7.47;;;4.70;;
5026;SDS011;2532;52.480;13.354;2023-07-31T16:29:25;5.77;;;4.60;;
5026;SDS011;2532;52.480;13.354;2023-07-31T16:31:52;6.77;;;4.10;;
5026;SDS011;2532;52.480;13.354;2023-07-31T16:34:20;6.77;;;4.27;;
5026;SDS011;2532;52.480;13.354;2023-07-31T16:36:49;5.03;;;4.40;;
5026;SDS011;2532;52.480;13.354;2023-07-31T16:39:16;5.40;;;4.60;;
5026;SDS011;2532;52.480;13.354;2023-07-31T16:41:43;5.63;;;4.13;;
5026;SDS011;2532;52.480;13.354;2023-07-31T16:44:10;6.47;;;4.27;;
5026;SDS011;2532;52.480;13.354;2023-07-31T16:46:37;5.53;;;4.43;;
5026;SDS011;2532;52.480;13.354;2023-07-31T16:49:04;6.90;;;4.60;;
5026;SDS011;2532;52.480;13.354;2023-07-31T16:51:32;6.30;;;3.90;;
5026;SDS011;2532;52.480;13.354;2023-07-31T16:53:59;9.90;;;4.50;;
5026;SDS011;2532;52.480;13.354;2023-07-31T16:56:26;6.83;;;3.93;;
5026;SDS011;2532;52.480;13.354;2023-07-31T16:58:53;8.37;;;4.30;;
5026;SDS011;2532;52.480;13.354;2023-07-31T17:01:21;6.73;;;4.50;;
5026;SDS011;2532;52.480;13.354;2023-07-31T17:03:50;6.43;;;3.67;;
5026;SDS011;2532;52.480;13.354;2023-07-31T17:06:17;7.60;;;4.00;;
5026;SDS011;2532;52.480;13.354;2023-07-31T17:08:45;6.43;;;3.90;;
5026;SDS011;2532;52.480;13.354;2023-07-31T17:11:12;6.00;;;4.13;;
5026;SDS011;2532;52.480;13.354;2023-07-31T17:13:39;7.70;;;3.90;;
5026;SDS011;2532;52.480;13.354;2023-07-31T17:16:06;6.70;;;4.20;;
5026;SDS011;2532;52.480;13.354;2023-07-31T17:18:33;6.03;;;4.10;;
5026;SDS011;2532;52.480;13.354;2023-07-31T17:21:00;6.93;;;4.50;;
5026;SDS011;2532;52.480;13.354;2023-07-31T17:23:27;6.83;;;4.33;;
5026;SDS011;2532;52.480;13.354;2023-07-31T17:25:55;10.50;;;4.37;;
5026;SDS011;2532;52.480;13.354;2023-07-31T17:28:22;5.27;;;3.87;;
5026;SDS011;2532;52.480;13.354;2023-07-31T17:30:49;7.00;;;4.20;;
5026;SDS011;2532;52.480;13.354;2023-07-31T17:33:16;5.47;;;4.40;;
5026;SDS011;2532;52.480;13.354;2023-07-31T17:35:43;6.47;;;4.30;;
5026;SDS011;2532;52.480;13.354;2023-07-31T17:38:10;7.17;;;4.43;;
5026;SDS011;2532;52.480;13.354;2023-07-31T17:40:37;5.73;;;4.17;;
5026;SDS011;2532;52.480;13.354;2023-07-31T17:43:05;7.50;;;5.00;;
5026;SDS011;2532;52.480;13.354;2023-07-31T17:45:32;6.97;;;3.70;;
5026;SDS011;2532;52.480;13.354;2023-07-31T17:47:59;8.43;;;6.80;;
5026;SDS011;2532;52.480;13.354;2023-07-31T17:50:26;5.53;;;4.40;;
5026;SDS011;2532;52.480;13.354;2023-07-31T17:52:55;7.80;;;4.33;;
5026;SDS011;2532;52.480;13.354;2023-07-31T17:55:21;5.03;;;3.40;;
5026;SDS011;2532;52.480;13.354;2023-07-31T17:57:48;5.00;;;3.40;;
5026;SDS011;2532;52.480;13.354;2023-07-31T18:00:17;7.80;;;4.13;;
5026;SDS011;2532;52.480;13.354;2023-07-31T18:02:47;5.37;;;4.10;;
5026;SDS011;2532;52.480;13.354;2023-07-31T18:05:14;5.90;;;4.17;;
5026;SDS011;2532;52.480;13.354;2023-07-31T18:07:41;6.67;;;4.37;;
5026;SDS011;2532;52.480;13.354;2023-07-31T18:10:08;6.37;;;3.63;;
5026;SDS011;2532;52.480;13.354;2023-07-31T18:12:35;7.20;;;4.07;;
5026;SDS011;2532;52.480;13.354;2023-07-31T18:15:03;7.03;;;4.60;;
5026;SDS011;2532;52.480;13.354;2023-07-31T18:17:32;5.87;;;3.80;;
5026;SDS011;2532;52.480;13.354;2023-07-31T18:19:59;7.10;;;3.57;;
5026;SDS011;2532;52.480;13.354;2023-07-31T18:22:26;9.30;;;5.67;;
5026;SDS011;2532;52.480;13.354;2023-07-31T18:24:53;9.80;;;3.80;;
5026;SDS011;2532;52.480;13.354;2023-07-31T18:27:20;5.57;;;4.07;;
5026;SDS011;2532;52.480;13.354;2023-07-31T18:29:48;5.93;;;4.07;;
5026;SDS011;2532;52.480;13.354;2023-07-31T18:32:15;6.30;;;3.80;;
5026;SDS011;2532;52.480;13.354;2023-07-31T18:34:44;7.93;;;3.93;;
5026;SDS011;2532;52.480;13.354;2023-07-31T18:37:10;6.00;;;4.70;;
5026;SDS011;2532;52.480;13.354;2023-07-31T18:39:37;4.27;;;3.37;;
5026;SDS011;2532;52.480;13.354;2023-07-31T18:42:05;5.80;;;3.93;;
5026;SDS011;2532;52.480;13.354;2023-07-31T18:44:33;5.70;;;3.80;;
5026;SDS011;2532;52.480;13.354;2023-07-31T18:47:00;6.50;;;3.67;;
5026;SDS011;2532;52.480;13.354;2023-07-31T18:49:27;6.47;;;3.90;;
5026;SDS011;2532;52.480;13.354;2023-07-31T18:51:56;5.87;;;3.83;;
5026;SDS011;2532;52.480;13.354;2023-07-31T18:54:23;12.20;;;4.60;;
5026;SDS011;2532;52.480;13.354;2023-07-31T18:56:50;6.00;;;4.60;;
5026;SDS011;2532;52.480;13.354;2023-07-31T18:59:17;4.80;;;3.70;;
5026;SDS011;2532;52.480;13.354;2023-07-31T19:01:44;7.70;;;4.90;;
5026;SDS011;2532;52.480;13.354;2023-07-31T19:04:11;6.93;;;4.40;;